Terminal Aerodrome Forecast
Issued by NWS

Home | Current Version | Previous Version | Text Only | Print | Product List | Glossary On
Versions: 1 2 3 4 5 6 7 8 9 10 11 12 13 14 15 16 17
000
FTUS46 KMTR 270520
TAFSJC
TAF
KSJC 270520Z 2706/2806 31007KT P6SM FEW020
     FM271000 12005KT P6SM SCT015
     FM271730 31012KT P6SM FEW020
     FM280300 30008KT P6SM FEW020=

USA.gov is the U.S. government's official web portal to all federal, state and local government web resources and services.